Historique des mesures à Cassis (13260), France
Quotidien Résumé Décembre 5, 2017 Unités:  Métrique    US   Métrique/US
« Précédent (Jour)
Suivant (Jour) »
Quotidien Hebdomadaire Mensuel Annuel Période au choix
  Maximum: Minimum: Moyenne:
Température: TemperatureC °C 4.6 °C 6.9 °C
Point de rosée: DewpointC °C -2.1 °C 0.6 °C
Humidité: Humidity % 57 % 60 %
Vitesse du vent: 0 km/h 0 km/h 2.3 km/h
Rafales: 0 km/h - -
Vent:- - SSE
Pression: PressurehPa hPa 1027.7 hPa -
Précipitations: 0.0 mm    
Historical Graphs
 
 
Mesures pour : Décembre 5, 2017
Heure Temperature Point de rosée Pression Vent Vitesse du vent Rafales Humidité Pluie (par heure) Conditions
TemperatureC °C DewpointC °C PressurehPa hPa Calm     Humidity % HourlyPrecipMM mm SoftwareType W/m2
00:10 5.1 °C 0.1 °C 1028.3 hPa Calm     70 % 0.0 mm open2300-1.11 W/m2
01:10 4.9 °C -0.3 °C 1027.7 hPa Calm   3.4 km/h 69 % 0.0 mm open2300-1.11 W/m2
02:11 5.2 °C -0.2 °C 1027.7 hPa Calm   7.6 km/h 68 % 0.0 mm open2300-1.11 W/m2
03:10 4.6 °C -0.6 °C 1028.0 hPa Calm     69 % 0.0 mm open2300-1.11 W/m2
04:11 4.8 °C -0.6 °C 1028.3 hPa North 15.6 km/h 15.6 km/h 68 % 0.0 mm open2300-1.11 W/m2
06:11 5.2 °C -1.5 °C 1028.3 hPa North 14 km/h 14 km/h 62 % 0.0 mm open2300-1.11 W/m2
07:10 5.4 °C -1.7 °C 1028.7 hPa NNW 16.3 km/h 16.3 km/h 60 % 0.0 mm open2300-1.11 W/m2
08:11 5.3 °C -2.1 °C 1029.3 hPa Calm     59 % 0.0 mm open2300-1.11 W/m2
09:10 6.2 °C -1.5 °C 1030.0 hPa Calm     58 % 0.0 mm open2300-1.11 W/m2
10:11 7.9 °C -0.1 °C 1030.7 hPa Calm     57 % 0.0 mm open2300-1.11 W/m2
11:10 9.3 °C 1.7 °C 1030.7 hPa Calm     59 % 0.0 mm open2300-1.11 W/m2
12:10 10.3 °C 2.9 °C 1030.4 hPa Calm   1.8 km/h 60 % 0.0 mm open2300-1.11 W/m2
13:10 10.4 °C 3.4 °C 1030.7 hPa Calm   5.1 km/h 62 % 0.0 mm open2300-1.11 W/m2
14:11 10.5 °C 3.9 °C 1030.0 hPa Calm     64 % 0.0 mm open2300-1.11 W/m2
15:10 10.6 °C 4.5 °C 1030.4 hPa Calm     66 % 0.0 mm open2300-1.11 W/m2
17:10 8.9 °C 1.3 °C 1030.7 hPa WNW 7.6 km/h 19.2 km/h 59 % 0.0 mm open2300-1.11 W/m2
18:10 8.2 °C 1.1 °C 1030.7 hPa Calm     61 % 0.0 mm open2300-1.11 W/m2
19:10 7.6 °C 0.6 °C 1031.0 hPa Calm     61 % 0.0 mm open2300-1.11 W/m2
20:11 7.4 °C 0.6 °C 1031.4 hPa Calm     62 % 0.0 mm open2300-1.11 W/m2
21:10 7.4 °C 0.6 °C 1031.4 hPa Calm     62 % 0.0 mm open2300-1.11 W/m2
22:11 7.3 °C 0.9 °C 1031.7 hPa Calm     64 % 0.0 mm open2300-1.11 W/m2
23:10 6.7 °C 0.8 °C 1032.1 hPa Calm     66 % 0.0 mm open2300-1.11 W/m2
Observations météo à CASSIS
WU-History script by Weather Underground - 1 mb